Time;durP1;ratioP1;P1;durP2;ratioP2;P2;SDS_P1;SDS_P2;PMS_P1;PMS_P2;Temp;Humidity;BMP_temperature;BMP_pressure;BME280_temperature;BME280_humidity;BME280_pressure;Samples;Min_cycle;Max_cycle;Signal;HPM_P1;HPM_P2
2021/12/08 00:01:07;;;;;;;4.93;3.25;;;22.10;56.90;;;;;;5097753;28;20036;-72
2021/12/08 00:03:33;;;;;;;3.95;3.58;;;22.10;56.80;;;;;;5097587;28;20043;-72
2021/12/08 00:06:00;;;;;;;6.68;3.20;;;22.10;56.60;;;;;;5097600;28;20049;-72
2021/12/08 00:08:29;;;;;;;3.95;3.22;;;22.10;56.40;;;;;;5097348;28;20062;-72
2021/12/08 00:13:28;;;;;;;4.90;3.35;;;22.00;56.50;;;;;;5097408;28;20044;-72
2021/12/08 00:15:59;;;;;;;3.90;2.65;;;22.00;56.70;;;;;;5097359;28;20041;-72
2021/12/08 00:18:27;;;;;;;3.42;2.78;;;22.00;56.40;;;;;;5097359;28;20092;-72
2021/12/08 00:20:58;;;;;;;4.15;3.28;;;22.20;56.50;;;;;;5097090;28;20104;-72
2021/12/08 00:23:26;;;;;;;4.47;3.20;;;22.00;56.30;;;;;;5097275;28;20051;-72
2021/12/08 00:25:54;;;;;;;4.57;3.42;;;22.10;56.10;;;;;;5079877;28;20044;-71
2021/12/08 00:28:20;;;;;;;3.67;3.28;;;22.00;56.30;;;;;;5097107;28;20075;-72
2021/12/08 00:30:51;;;;;;;4.95;3.38;;;22.00;56.20;;;;;;5097034;28;20055;-72
2021/12/08 00:33:18;;;;;;;4.85;3.25;;;21.90;56.50;;;;;;5097210;28;20037;-72
2021/12/08 00:35:48;;;;;;;4.13;3.30;;;22.00;56.60;;;;;;5097141;28;20044;-72
2021/12/08 00:38:17;;;;;;;5.07;4.00;;;22.00;56.60;;;;;;5096917;28;20068;-72
2021/12/08 00:40:44;;;;;;;5.35;3.80;;;21.90;56.80;;;;;;5097058;28;20044;-72
2021/12/08 00:43:10;;;;;;;5.13;4.03;;;21.80;56.70;;;;;;5096998;28;20044;-72
2021/12/08 00:45:37;;;;;;;4.43;3.60;;;21.80;57.20;;;;;;5096712;28;20056;-72
2021/12/08 00:48:04;;;;;;;7.28;3.85;;;21.80;56.80;;;;;;5096899;28;20033;-72
2021/12/08 00:50:33;;;;;;;4.70;3.50;;;21.80;56.70;;;;;;5096823;28;20044;-72
2021/12/08 00:53:00;;;;;;;4.35;3.15;;;21.90;56.80;;;;;;5096601;28;20059;-72
2021/12/08 00:55:27;;;;;;;6.78;4.63;;;21.90;56.70;;;;;;5096840;28;20040;-72
2021/12/08 00:57:55;;;;;;;6.30;3.63;;;22.00;56.40;;;;;;5096430;28;20040;-72
2021/12/08 01:00:28;;;;;;;8.15;3.70;;;22.00;56.50;;;;;;5096617;28;20130;-72
2021/12/08 01:02:54;;;;;;;7.60;4.07;;;21.90;56.40;;;;;;5096836;28;20040;-72
2021/12/08 01:05:26;;;;;;;5.22;3.55;;;21.90;56.40;;;;;;5096524;28;20056;-72
2021/12/08 01:07:53;;;;;;;5.67;3.80;;;22.00;56.50;;;;;;5096665;28;20036;-72
2021/12/08 01:10:25;;;;;;;6.30;3.88;;;22.00;56.40;;;;;;5096695;28;20052;-72
2021/12/08 01:12:52;;;;;;;5.40;3.92;;;22.00;56.40;;;;;;5096637;28;20145;-72
2021/12/08 01:15:20;;;;;;;5.90;2.67;;;22.00;56.20;;;;;;5096487;28;20040;-72
2021/12/08 01:17:46;;;;;;;5.75;4.57;;;22.10;56.30;;;;;;5096576;28;20041;-72
2021/12/08 01:20:14;;;;;;;5.00;4.30;;;22.00;56.10;;;;;;5096455;28;20052;-72
2021/12/08 01:22:41;;;;;;;5.97;3.58;;;21.90;56.00;;;;;;5096665;28;20059;-72
2021/12/08 01:25:08;;;;;;;2.78;2.22;;;22.00;56.10;;;;;;5096491;28;20040;-72
2021/12/08 01:27:35;;;;;;;5.35;4.00;;;22.00;56.30;;;;;;5096463;28;20041;-72
2021/12/08 01:30:03;;;;;;;7.15;4.50;;;22.00;56.20;;;;;;5096275;28;20098;-72
2021/12/08 01:32:29;;;;;;;7.47;4.53;;;21.90;56.10;;;;;;5099166;28;20051;-72
2021/12/08 01:34:56;;;;;;;7.10;3.83;;;22.00;56.10;;;;;;5100552;28;20060;-72
2021/12/08 01:37:22;;;;;;;4.55;3.30;;;21.90;56.20;;;;;;5100549;28;20052;-72
2021/12/08 01:39:48;;;;;;;5.88;4.30;;;21.90;56.50;;;;;;5100127;28;20044;-72
2021/12/08 01:42:26;;;;;;;5.72;4.20;;;21.90;56.40;;;;;;5100378;28;20048;-73
2021/12/08 01:47:38;;;;;;;5.18;4.05;;;22.00;56.10;;;;;;5100285;28;20104;-72
2021/12/08 01:50:06;;;;;;;5.35;4.20;;;22.00;56.20;;;;;;5100076;28;20041;-72
2021/12/08 01:52:32;;;;;;;6.82;4.57;;;22.00;56.20;;;;;;5100183;28;20036;-73
2021/12/08 01:54:59;;;;;;;8.38;4.57;;;22.10;55.80;;;;;;5099864;28;20075;-73
2021/12/08 01:57:25;;;;;;;7.20;4.13;;;22.00;55.90;;;;;;5100231;28;20032;-73
2021/12/08 01:59:51;;;;;;;9.07;4.22;;;22.00;56.00;;;;;;5099900;28;20115;-72
2021/12/08 02:02:18;;;;;;;6.38;3.53;;;21.90;56.20;;;;;;5099927;28;20049;-72
2021/12/08 02:04:45;;;;;;;7.57;3.70;;;21.90;56.30;;;;;;5082537;28;20048;-72
2021/12/08 02:07:11;;;;;;;4.20;2.97;;;21.90;56.00;;;;;;5099866;28;20070;-72
2021/12/08 02:09:37;;;;;;;5.80;4.18;;;21.90;55.90;;;;;;5099444;28;20056;-72
2021/12/08 02:12:03;;;;;;;5.43;4.07;;;21.90;55.10;;;;;;5099837;28;20033;-72
2021/12/08 02:14:32;;;;;;;4.97;3.90;;;21.90;56.10;;;;;;5099587;28;20056;-73
2021/12/08 02:16:58;;;;;;;7.43;4.05;;;22.00;56.00;;;;;;5099839;28;20040;-72
2021/12/08 02:19:24;;;;;;;5.93;4.38;;;22.10;55.90;;;;;;5099566;28;20112;-73
2021/12/08 02:21:52;;;;;;;7.25;4.95;;;22.00;56.00;;;;;;5099273;28;20036;-72
2021/12/08 02:24:21;;;;;;;8.18;4.10;;;22.10;56.00;;;;;;5099329;28;20052;-73
2021/12/08 02:26:50;;;;;;;5.80;3.83;;;22.10;55.90;;;;;;5099606;28;20051;-72
2021/12/08 02:29:32;;;;;;;6.32;3.97;;;22.10;55.90;;;;;;5099250;28;20032;-73
2021/12/08 02:32:25;;;;;;;5.15;3.97;;;22.10;55.70;;;;;;5099482;28;20045;-73
2021/12/08 02:48:30;;;;;;;5.28;3.53;;;22.00;56.20;;;;;;5098898;28;20051;-72
2021/12/08 02:50:57;;;;;;;9.02;4.22;;;21.90;55.70;;;;;;5098773;28;20040;-72
2021/12/08 02:53:24;;;;;;;7.75;4.72;;;21.80;56.00;;;;;;5098792;28;20052;-72
2021/12/08 02:55:51;;;;;;;4.00;2.72;;;22.00;56.00;;;;;;5099026;28;20049;-72
2021/12/08 02:58:17;;;;;;;5.50;3.15;;;21.90;55.80;;;;;;5098948;28;20121;-72
2021/12/08 03:00:52;;;;;;;7.75;3.58;;;21.90;56.20;;;;;;5098860;28;20047;-72
2021/12/08 03:03:18;;;;;;;6.45;3.97;;;21.90;56.10;;;;;;5098974;28;20066;-72
2021/12/08 03:05:45;;;;;;;5.40;4.05;;;21.80;56.20;;;;;;5098578;28;20040;-72
2021/12/08 03:08:11;;;;;;;6.85;4.38;;;21.90;56.30;;;;;;5098968;28;20047;-72
2021/12/08 03:10:43;;;;;;;5.68;4.30;;;21.90;55.90;;;;;;5098677;28;20060;-72
2021/12/08 03:13:10;;;;;;;6.07;4.32;;;21.90;56.00;;;;;;5098629;28;20068;-72
2021/12/08 03:15:37;;;;;;;7.45;4.05;;;21.90;55.90;;;;;;5098690;28;20098;-72
2021/12/08 03:18:04;;;;;;;5.72;4.30;;;21.80;56.10;;;;;;5098481;28;20045;-72
2021/12/08 03:20:45;;;;;;;6.63;4.55;;;21.90;56.20;;;;;;5098336;28;20047;-72
2021/12/08 03:23:16;;;;;;;6.18;4.03;;;21.90;56.20;;;;;;5098559;28;20040;-72
2021/12/08 03:25:54;;;;;;;7.22;4.55;;;21.70;56.40;;;;;;5098186;28;20055;-72
2021/12/08 03:28:24;;;;;;;6.72;4.97;;;21.80;56.40;;;;;;5098436;28;20060;-72
2021/12/08 03:33:20;;;;;;;4.97;3.33;;;21.90;55.70;;;;;;5098212;28;20041;-72
2021/12/08 03:35:48;;;;;;;7.18;4.47;;;21.90;56.00;;;;;;5098248;28;20100;-73
2021/12/08 03:38:16;;;;;;;4.88;3.90;;;21.90;56.00;;;;;;5098186;28;20090;-72
2021/12/08 03:40:42;;;;;;;6.85;4.22;;;22.00;55.80;;;;;;5097802;28;20052;-73
2021/12/08 03:43:09;;;;;;;5.78;4.35;;;22.00;55.90;;;;;;5098141;28;20113;-72
2021/12/08 03:45:39;;;;;;;6.65;4.43;;;22.00;55.80;;;;;;5097965;28;20075;-72
2021/12/08 03:48:11;;;;;;;6.40;4.72;;;22.00;55.70;;;;;;5097925;28;20558;-72
2021/12/08 03:50:41;;;;;;;6.13;4.07;;;22.00;55.60;;;;;;5097767;28;20040;-72
2021/12/08 03:53:09;;;;;;;5.38;4.05;;;22.00;55.80;;;;;;5097838;28;20032;-72
2021/12/08 03:55:36;;;;;;;5.78;4.38;;;22.00;55.70;;;;;;5096951;28;20046;-72
2021/12/08 03:58:02;;;;;;;5.43;3.67;;;21.80;55.80;;;;;;5097874;28;20112;-72
2021/12/08 04:00:29;;;;;;;5.53;3.03;;;21.90;56.30;;;;;;5097301;28;20044;-72
2021/12/08 04:02:57;;;;;;;8.63;5.07;;;21.80;56.30;;;;;;5097355;28;20045;-72
2021/12/08 04:05:39;;;;;;;5.75;3.67;;;21.80;55.80;;;;;;5097456;28;20103;-72
2021/12/08 04:08:15;;;;;;;5.35;3.58;;;21.90;55.60;;;;;;5097499;28;20037;-73
2021/12/08 04:10:46;;;;;;;5.28;3.63;;;22.00;55.80;;;;;;5097431;28;20036;-72
2021/12/08 04:13:13;;;;;;;7.72;2.78;;;22.00;55.90;;;;;;5097414;28;20041;-72
2021/12/08 04:15:40;;;;;;;5.88;3.95;;;21.90;55.90;;;;;;5097404;28;20090;-72
2021/12/08 04:18:06;;;;;;;5.97;3.42;;;21.90;55.60;;;;;;5097525;28;20071;-72
2021/12/08 04:20:40;;;;;;;5.43;3.80;;;21.90;55.60;;;;;;5097195;28;20044;-72
2021/12/08 04:23:09;;;;;;;5.68;4.35;;;21.90;55.80;;;;;;5097116;28;20048;-72
2021/12/08 04:25:38;;;;;;;6.55;4.00;;;21.90;55.70;;;;;;5097175;28;20076;-72
2021/12/08 04:28:09;;;;;;;6.72;3.85;;;21.90;55.50;;;;;;5097211;28;20037;-72
2021/12/08 04:30:46;;;;;;;7.30;4.93;;;21.90;55.40;;;;;;5097054;28;20154;-72
2021/12/08 04:33:13;;;;;;;6.43;3.65;;;21.90;55.20;;;;;;5097078;28;20052;-72
2021/12/08 04:35:41;;;;;;;6.05;4.25;;;21.90;55.90;;;;;;5096766;28;20056;-72
2021/12/08 04:38:11;;;;;;;6.55;4.35;;;21.90;56.00;;;;;;5097125;28;20100;-73
2021/12/08 04:41:00;;;;;;;6.90;4.43;;;22.00;55.90;;;;;;5097011;28;20044;-72
2021/12/08 04:52:01;;;;;;;6.13;3.80;;;21.90;55.60;;;;;;5096782;28;20040;-73
2021/12/08 05:08:40;;;;;;;6.32;4.22;;;21.60;55.00;;;;;;5096046;28;20045;-72
2021/12/08 05:11:28;;;;;;;6.10;3.92;;;21.30;54.50;;;;;;5095749;28;20036;-72
2021/12/08 05:14:04;;;;;;;6.13;3.42;;;21.30;56.70;;;;;;5095547;28;20067;-73
2021/12/08 05:16:31;;;;;;;8.68;5.20;;;21.30;57.80;;;;;;5096033;28;20040;-73
2021/12/08 05:19:01;;;;;;;3.60;2.83;;;21.50;58.60;;;;;;5095886;28;20045;-72
2021/12/08 05:21:47;;;;;;;4.75;3.78;;;21.80;57.30;;;;;;5095825;28;20039;-73
2021/12/08 05:24:36;;;;;;;8.32;4.15;;;22.10;57.40;;;;;;5096977;28;20044;-72
2021/12/08 05:27:29;;;;;;;6.68;3.88;;;22.20;56.20;;;;;;5096030;28;20040;-74
2021/12/08 05:30:03;;;;;;;4.70;4.28;;;22.40;51.60;;;;;;5096076;28;20104;-74
2021/12/08 05:32:30;;;;;;;4.50;3.78;;;22.30;49.40;;;;;;5095591;28;20119;-73
2021/12/08 05:34:57;;;;;;;6.22;4.15;;;22.30;47.50;;;;;;5095713;28;20068;-73
2021/12/08 05:37:25;;;;;;;5.18;4.22;;;22.20;47.40;;;;;;5095996;28;20041;-73
2021/12/08 05:39:52;;;;;;;5.93;4.22;;;22.10;47.60;;;;;;5095791;28;20045;-72
2021/12/08 05:42:24;;;;;;;6.22;4.30;;;22.10;47.60;;;;;;5095651;28;20052;-72
2021/12/08 05:44:51;;;;;;;6.03;4.30;;;22.20;47.80;;;;;;5078099;28;20052;-72
2021/12/08 05:47:23;;;;;;;7.00;4.53;;;22.10;48.40;;;;;;5093762;28;20089;-72
2021/12/08 05:49:51;;;;;;;10.40;4.50;;;22.00;48.60;;;;;;5075556;28;20056;-72
2021/12/08 05:52:18;;;;;;;5.60;4.03;;;21.80;49.40;;;;;;5075220;28;20044;-73
2021/12/08 05:54:47;;;;;;;7.32;5.43;;;21.70;49.80;;;;;;5075178;28;20044;-73
2021/12/08 05:57:32;;;;;;;6.10;4.75;;;21.80;51.40;;;;;;5075363;28;20040;-73
2021/12/08 05:59:58;;;;;;;6.10;3.10;;;21.70;51.60;;;;;;5075273;28;20040;-73
2021/12/08 06:02:35;;;;;;;5.72;4.07;;;21.70;45.40;;;;;;5075257;28;20041;-72
2021/12/08 06:05:05;;;;;;;3.78;2.38;;;21.60;42.40;;;;;;5074791;28;20044;-72
2021/12/08 06:07:31;;;;;;;3.88;2.55;;;21.80;45.90;;;;;;5081545;28;20036;-72
2021/12/08 06:10:00;;;;;;;6.00;4.75;;;21.90;49.70;;;;;;5105209;28;20047;-73
2021/12/08 06:12:28;;;;;;;2.92;2.10;;;22.10;47.40;;;;;;5103521;28;20036;-73
2021/12/08 06:14:56;;;;;;;8.10;3.83;;;22.00;40.80;;;;;;5103057;28;20075;-70
2021/12/08 06:17:27;;;;;;;3.72;2.40;;;21.90;38.80;;;;;;5095990;28;20051;-71
2021/12/08 06:19:54;;;;;;;5.93;3.88;;;21.80;39.10;;;;;;5098927;28;20108;-70
2021/12/08 06:22:23;;;;;;;16.10;2.55;;;21.80;39.90;;;;;;5104453;28;20040;-71
2021/12/08 06:24:50;;;;;;;4.85;4.00;;;21.70;39.00;;;;;;5109518;28;20052;-70
2021/12/08 06:27:17;;;;;;;4.97;4.28;;;21.80;41.00;;;;;;5110574;28;20045;-70
2021/12/08 06:29:45;;;;;;;6.07;4.60;;;21.80;43.50;;;;;;5108956;28;20075;-70
2021/12/08 06:32:12;;;;;;;6.63;3.80;;;21.90;40.80;;;;;;5108090;28;20058;-70
2021/12/08 06:34:43;;;;;;;5.18;3.70;;;21.80;38.70;;;;;;5107118;28;20052;-69
2021/12/08 06:37:14;;;;;;;7.43;4.45;;;21.90;37.30;;;;;;5108085;28;20148;-69
2021/12/08 06:39:57;;;;;;;3.55;2.63;;;21.90;36.50;;;;;;5108796;28;20044;-69
2021/12/08 06:42:27;;;;;;;6.37;4.80;;;21.90;41.10;;;;;;5091437;28;20043;-69
2021/12/08 06:44:55;;;;;;;5.82;4.57;;;22.00;38.70;;;;;;5109165;28;20054;-70
2021/12/08 06:47:27;;;;;;;10.15;6.35;;;22.00;37.50;;;;;;5112475;28;20066;-70
2021/12/08 06:49:56;;;;;;;5.97;4.60;;;22.00;39.20;;;;;;5118811;28;20059;-71
2021/12/08 06:52:28;;;;;;;6.53;4.45;;;22.10;51.40;;;;;;5118582;28;20283;-72
2021/12/08 06:55:17;;;;;;;7.82;5.30;;;22.20;54.90;;;;;;5118728;28;20066;-71
2021/12/08 06:58:06;;;;;;;7.72;4.90;;;22.30;57.20;;;;;;5099496;28;20048;-71
2021/12/08 07:01:08;;;;;;;6.45;4.07;;;22.20;56.20;;;;;;5098212;28;20040;-71
2021/12/08 07:03:44;;;;;;;7.53;4.57;;;22.10;57.20;;;;;;5097784;28;20040;-73
2021/12/08 07:06:43;;;;;;;4.40;2.63;;;22.20;57.80;;;;;;5097935;28;20064;-72
2021/12/08 07:09:20;;;;;;;5.88;4.63;;;22.10;58.40;;;;;;5097743;28;20044;-71
2021/12/08 07:11:50;;;;;;;8.18;6.05;;;22.10;57.90;;;;;;5097176;28;20051;-70
2021/12/08 07:14:22;;;;;;;7.40;4.28;;;22.10;57.70;;;;;;5097375;28;20051;-72
2021/12/08 07:16:53;;;;;;;5.40;3.92;;;22.10;57.20;;;;;;5097724;28;20108;-72
2021/12/08 07:19:33;;;;;;;6.13;4.40;;;22.10;56.70;;;;;;5097760;28;20079;-73
2021/12/08 07:22:01;;;;;;;6.38;4.53;;;22.10;57.20;;;;;;5097700;28;20048;-71
2021/12/08 07:24:35;;;;;;;7.30;4.40;;;22.30;57.60;;;;;;5097324;28;20072;-72
2021/12/08 07:27:08;;;;;;;6.43;4.78;;;22.10;57.80;;;;;;5097703;28;20032;-71
2021/12/08 07:29:37;;;;;;;6.90;5.00;;;22.20;58.10;;;;;;5096566;28;20044;-70
2021/12/08 07:32:13;;;;;;;9.13;5.78;;;22.30;57.70;;;;;;5097265;28;20040;-71
2021/12/08 07:34:40;;;;;;;8.43;5.78;;;22.30;58.90;;;;;;5097510;28;20055;-71
2021/12/08 07:37:14;;;;;;;8.20;5.32;;;22.20;58.70;;;;;;5097370;28;20040;-72
2021/12/08 07:39:44;;;;;;;5.93;4.30;;;22.20;58.50;;;;;;5097324;28;20052;-74
2021/12/08 07:42:21;;;;;;;6.32;4.45;;;22.10;59.20;;;;;;5097212;28;20040;-71
2021/12/08 07:44:51;;;;;;;9.05;4.70;;;22.20;57.90;;;;;;5097127;28;20112;-73
2021/12/08 07:47:20;;;;;;;7.95;5.10;;;22.10;59.00;;;;;;5097248;28;20044;-71
2021/12/08 07:49:51;;;;;;;6.60;5.53;;;22.30;58.60;;;;;;5095422;28;20033;-71
2021/12/08 07:52:28;;;;;;;6.15;4.78;;;22.30;57.40;;;;;;5096950;28;20074;-71
2021/12/08 07:54:55;;;;;;;5.03;2.97;;;22.20;58.60;;;;;;5097075;28;20070;-70
2021/12/08 07:57:27;;;;;;;5.97;5.18;;;22.20;58.50;;;;;;5097233;28;20041;-69
2021/12/08 07:59:59;;;;;;;7.53;5.30;;;22.30;57.10;;;;;;5096909;28;20059;-72
2021/12/08 08:02:27;;;;;;;5.22;3.05;;;22.20;58.30;;;;;;5096822;28;20045;-70
2021/12/08 08:04:57;;;;;;;7.97;5.68;;;22.20;58.40;;;;;;5096781;28;20100;-70
2021/12/08 08:07:23;;;;;;;6.75;4.72;;;22.20;57.50;;;;;;5096734;28;20040;-70
2021/12/08 08:09:59;;;;;;;8.73;5.63;;;22.10;57.60;;;;;;5096850;28;20112;-70
2021/12/08 08:12:28;;;;;;;8.75;6.40;;;22.10;57.90;;;;;;5096599;28;20038;-69
2021/12/08 08:14:57;;;;;;;5.85;4.60;;;22.10;47.70;;;;;;5096552;28;20036;-69
2021/12/08 08:17:33;;;;;;;1.35;0.98;;;21.70;52.10;;;;;;5096590;28;20062;-69
2021/12/08 08:20:03;;;;;;;4.18;2.83;;;21.50;56.50;;;;;;5095963;28;20044;-69
2021/12/08 08:22:30;;;;;;;7.25;4.85;;;21.70;54.20;;;;;;5096174;28;20044;-69
2021/12/08 08:25:00;;;;;;;8.25;6.35;;;21.80;51.10;;;;;;5096210;28;20036;-71
2021/12/08 08:27:27;;;;;;;6.90;5.45;;;21.80;41.60;;;;;;5096401;28;20044;-70
2021/12/08 08:29:54;;;;;;;7.50;5.93;;;21.50;42.70;;;;;;5096495;28;20064;-69
2021/12/08 08:32:27;;;;;;;8.85;7.15;;;21.10;40.70;;;;;;5096274;28;20040;-68
2021/12/08 08:35:09;;;;;;;;;;;20.70;37.40;;;;;;5096729;28;20045;-68
2021/12/08 08:37:35;;;;;;;6.97;4.93;;;20.80;45.30;;;;;;5096421;28;19908;-69
2021/12/08 08:40:14;;;;;;;9.20;5.55;;;20.50;47.10;;;;;;5096225;28;20059;-70
2021/12/08 08:42:47;;;;;;;5.25;3.83;;;20.70;47.00;;;;;;5095956;28;20040;-69
2021/12/08 08:45:26;;;;;;;9.98;6.45;;;20.50;48.70;;;;;;5095990;28;20043;-69
2021/12/08 08:48:00;;;;;;;6.38;5.32;;;20.60;49.40;;;;;;5098668;28;20099;-69
2021/12/08 08:50:42;;;;;;;7.47;5.20;;;20.80;49.00;;;;;;5107957;28;20032;-69
2021/12/08 08:53:10;;;;;;;9.18;6.22;;;20.80;49.10;;;;;;5075895;28;20048;-69
2021/12/08 08:56:07;;;;;;;8.05;4.82;;;20.90;49.00;;;;;;5075923;28;20064;-69
2021/12/08 08:58:43;;;;;;;8.98;5.50;;;21.00;49.10;;;;;;5076118;28;20385;-69
2021/12/08 09:01:24;;;;;;;8.10;5.32;;;21.00;49.70;;;;;;5075004;28;20060;-70
2021/12/08 09:04:05;;;;;;;6.93;5.70;;;21.00;50.10;;;;;;5074733;28;20051;-70
2021/12/08 09:06:38;;;;;;;8.00;5.28;;;20.90;49.80;;;;;;5075097;28;20047;-70
2021/12/08 09:09:09;;;;;;;6.80;5.70;;;21.00;50.50;;;;;;5075406;28;20075;-70
2021/12/08 09:11:41;;;;;;;7.07;4.45;;;21.10;50.60;;;;;;5079099;28;20100;-69
2021/12/08 09:14:32;;;;;;;7.23;5.17;;;21.10;50.70;;;;;;5073869;28;20049;-70
2021/12/08 09:17:04;;;;;;;8.10;5.25;;;21.20;50.20;;;;;;5066406;28;20036;-68
2021/12/08 09:19:38;;;;;;;9.27;5.80;;;21.20;49.90;;;;;;5075615;28;20041;-70
2021/12/08 09:22:24;;;;;;;10.18;5.85;;;21.10;50.60;;;;;;5075411;28;20032;-70
2021/12/08 09:25:06;;;;;;;7.93;5.35;;;21.30;50.70;;;;;;5075039;28;20044;-71
2021/12/08 09:27:41;;;;;;;5.10;4.38;;;21.30;52.00;;;;;;5075740;28;20044;-69
2021/12/08 09:30:22;;;;;;;8.82;6.35;;;21.50;46.20;;;;;;5075384;28;20100;-69
2021/12/08 09:32:58;;;;;;;3.78;2.72;;;21.80;45.20;;;;;;5075549;28;20044;-68
2021/12/08 09:35:37;;;;;;;6.80;5.03;;;22.00;44.80;;;;;;5075302;28;20036;-69
2021/12/08 09:38:19;;;;;;;6.43;5.00;;;22.10;45.80;;;;;;5075192;28;20051;-70
2021/12/08 09:40:58;;;;;;;8.98;4.60;;;22.40;43.30;;;;;;5075414;28;20045;-71
2021/12/08 09:43:30;;;;;;;5.38;3.63;;;22.60;45.10;;;;;;5075407;28;20045;-69
2021/12/08 09:46:26;;;;;;;4.35;3.60;;;22.60;38.10;;;;;;5075027;28;20044;-69
2021/12/08 09:48:52;;;;;;;7.82;5.65;;;22.50;39.30;;;;;;5072463;28;20041;-70
2021/12/08 09:51:23;;;;;;;7.63;5.25;;;22.50;49.30;;;;;;5075342;28;20067;-70
2021/12/08 09:53:51;;;;;;;7.68;5.50;;;22.70;49.90;;;;;;5078508;28;20045;-69
2021/12/08 09:56:18;;;;;;;6.50;4.45;;;22.60;53.80;;;;;;5079236;28;20060;-69
2021/12/08 09:58:44;;;;;;;8.07;4.80;;;22.80;51.30;;;;;;5078984;28;20047;-69
2021/12/08 10:01:15;;;;;;;7.43;6.10;;;22.80;43.00;;;;;;5079092;28;20075;-69
2021/12/08 10:03:43;;;;;;;6.90;5.05;;;22.80;38.80;;;;;;5078637;28;20075;-69
2021/12/08 10:06:12;;;;;;;7.10;5.22;;;22.80;36.60;;;;;;5078792;28;20047;-69
2021/12/08 10:08:40;;;;;;;6.60;2.70;;;22.60;35.60;;;;;;5078959;28;20037;-69
2021/12/08 10:11:06;;;;;;;5.55;3.88;;;22.70;37.20;;;;;;5079074;28;20032;-69
2021/12/08 10:13:33;;;;;;;4.78;3.47;;;22.80;38.20;;;;;;5078568;28;20068;-69
2021/12/08 10:15:59;;;;;;;7.13;4.15;;;22.80;36.00;;;;;;5078945;28;20032;-69
2021/12/08 10:18:25;;;;;;;9.68;5.90;;;22.70;39.00;;;;;;5078704;28;20052;-68
2021/12/08 10:20:54;;;;;;;4.32;3.45;;;22.80;36.20;;;;;;5078461;28;20068;-68
2021/12/08 10:23:30;;;;;;;5.25;4.38;;;22.70;38.00;;;;;;5078651;28;20051;-67
2021/12/08 10:26:01;;;;;;;10.27;4.07;;;22.70;37.50;;;;;;5078503;28;20079;-68
2021/12/08 10:28:40;;;;;;;5.68;3.33;;;22.70;38.80;;;;;;5078676;28;20037;-67
2021/12/08 10:31:13;;;;;;;7.47;4.18;;;22.80;39.40;;;;;;5078584;28;20067;-69
2021/12/08 10:39:37;;;;;;;12.13;5.85;;;22.70;38.30;;;;;;5078131;28;20045;-69
2021/12/08 10:42:22;;;;;;;7.75;3.30;;;22.60;38.20;;;;;;5044452;28;20045;-69
2021/12/08 10:45:14;;;;;;;8.30;6.53;;;22.70;37.20;;;;;;5078066;28;20067;-68
2021/12/08 10:47:49;;;;;;;7.65;5.18;;;22.60;36.50;;;;;;5077920;28;20033;-69
2021/12/08 10:56:15;;;;;;;6.72;4.47;;;22.70;38.70;;;;;;5078124;28;20045;-68
2021/12/08 10:58:49;;;;;;;7.60;4.13;;;22.70;36.90;;;;;;5089364;28;20046;-68
2021/12/08 11:01:18;;;;;;;3.83;3.25;;;22.70;37.90;;;;;;5107103;28;20052;-68
2021/12/08 11:03:48;;;;;;;10.35;5.78;;;22.90;43.50;;;;;;5103908;28;20044;-68
2021/12/08 11:06:17;;;;;;;7.25;5.13;;;22.90;41.90;;;;;;5104328;28;20100;-69
2021/12/08 11:08:46;;;;;;;7.68;4.75;;;23.00;56.00;;;;;;5112207;28;20040;-69
2021/12/08 11:11:23;;;;;;;8.77;5.88;;;23.00;54.30;;;;;;5118159;28;20040;-69
2021/12/08 11:13:55;;;;;;;5.07;4.43;;;23.00;53.70;;;;;;5104042;28;20473;-69
2021/12/08 11:16:35;;;;;;;6.68;5.28;;;23.10;53.60;;;;;;5097687;28;20036;-69
2021/12/08 11:19:09;;;;;;;6.93;5.63;;;23.00;53.90;;;;;;5097888;28;20048;-69
2021/12/08 11:21:46;;;;;;;8.18;5.78;;;23.00;54.20;;;;;;5097998;28;20079;-69
2021/12/08 11:24:20;;;;;;;7.38;6.00;;;22.90;54.40;;;;;;5097236;28;20044;-69
2021/12/08 11:26:50;;;;;;;10.70;6.38;;;22.80;54.70;;;;;;5080377;28;20067;-69
2021/12/08 11:29:22;;;;;;;11.60;6.35;;;22.80;55.10;;;;;;5097493;28;20047;-69
2021/12/08 11:31:53;;;;;;;8.33;5.83;;;22.70;55.60;;;;;;5097797;28;20036;-68
2021/12/08 11:34:31;;;;;;;7.28;4.88;;;22.60;56.00;;;;;;5097415;28;20219;-70
2021/12/08 11:37:00;;;;;;;10.43;6.47;;;22.50;56.40;;;;;;5097284;28;20036;-70
2021/12/08 11:39:42;;;;;;;8.20;5.50;;;22.50;55.70;;;;;;5095643;28;20029;-70
2021/12/08 11:42:13;;;;;;;9.95;6.25;;;22.40;56.50;;;;;;5097397;28;20045;-69
2021/12/08 11:44:45;;;;;;;6.47;5.30;;;22.50;56.80;;;;;;5096727;28;20067;-69
2021/12/08 11:47:15;;;;;;;10.05;5.72;;;22.20;57.00;;;;;;5097475;28;20096;-70
2021/12/08 11:49:47;;;;;;;8.55;5.68;;;22.30;57.20;;;;;;5097115;28;20036;-69
2021/12/08 11:52:19;;;;;;;10.10;6.25;;;22.20;57.20;;;;;;5097112;28;20040;-69
2021/12/08 11:55:00;;;;;;;7.95;5.50;;;22.40;57.40;;;;;;5096355;28;20112;-69
2021/12/08 11:57:34;;;;;;;9.00;6.05;;;22.30;57.20;;;;;;5096764;28;20044;-69
2021/12/08 12:00:03;;;;;;;7.97;5.75;;;22.30;57.20;;;;;;5096984;28;20078;-69
2021/12/08 12:03:14;;;;;;;9.88;5.80;;;22.30;57.20;;;;;;5079258;28;20032;-70
2021/12/08 12:05:43;;;;;;;6.22;5.05;;;22.30;57.20;;;;;;5073828;28;20060;-69
2021/12/08 12:08:11;;;;;;;6.18;4.90;;;22.40;56.80;;;;;;5096612;28;20078;-69
2021/12/08 12:10:44;;;;;;;8.38;5.63;;;22.40;56.70;;;;;;5096015;28;20052;-70
2021/12/08 12:13:11;;;;;;;8.73;6.05;;;22.50;56.90;;;;;;5096395;28;20074;-72
2021/12/08 12:15:44;;;;;;;7.25;4.75;;;22.30;56.80;;;;;;5096125;28;20056;-69
2021/12/08 12:18:11;;;;;;;10.10;5.40;;;22.40;57.20;;;;;;5095910;28;20040;-70
2021/12/08 12:20:42;;;;;;;12.05;6.28;;;22.40;57.50;;;;;;5096156;28;20033;-69
2021/12/08 12:23:45;;;;;;;8.73;6.10;;;22.40;57.90;;;;;;5096429;28;20051;-68
2021/12/08 12:26:34;;;;;;;7.25;5.35;;;22.40;57.50;;;;;;5096157;28;20052;-69
2021/12/08 12:29:19;;;;;;;7.38;4.72;;;22.40;57.30;;;;;;5096521;28;20047;-69
2021/12/08 12:31:52;;;;;;;6.90;4.57;;;22.30;56.90;;;;;;5095930;28;20036;-69
2021/12/08 12:34:34;;;;;;;6.35;4.88;;;22.40;56.80;;;;;;5095849;28;20048;-68
2021/12/08 12:37:25;;;;;;;8.63;5.88;;;22.60;55.70;;;;;;5096304;28;20032;-69
2021/12/08 12:39:54;;;;;;;7.25;5.15;;;22.50;56.30;;;;;;5096056;28;20032;-69
2021/12/08 12:42:20;;;;;;;7.38;5.30;;;22.50;57.70;;;;;;5096247;28;20043;-68
2021/12/08 12:45:01;;;;;;;9.52;5.97;;;22.70;56.20;;;;;;5096212;28;20074;-69
2021/12/08 12:47:30;;;;;;;7.15;4.82;;;22.40;57.00;;;;;;5095922;28;20100;-69
2021/12/08 12:50:10;;;;;;;6.72;5.10;;;22.60;57.10;;;;;;5096199;28;20056;-69
2021/12/08 12:52:52;;;;;;;7.63;4.82;;;22.60;56.70;;;;;;5096219;28;20040;-69
2021/12/08 12:55:31;;;;;;;7.03;5.30;;;22.50;56.70;;;;;;5093820;28;20125;-69
2021/12/08 12:58:07;;;;;;;8.00;4.93;;;22.70;56.60;;;;;;5095903;28;20041;-69
2021/12/08 13:00:38;;;;;;;7.10;5.30;;;22.70;56.40;;;;;;5095946;28;20082;-69
2021/12/08 13:03:06;;;;;;;9.45;6.07;;;22.70;56.10;;;;;;5095976;28;20051;-68
2021/12/08 13:05:50;;;;;;;7.90;5.35;;;22.70;56.00;;;;;;5078220;28;20107;-69
2021/12/08 13:08:33;;;;;;;11.07;6.07;;;22.70;56.30;;;;;;5094510;28;20092;-69
2021/12/08 13:11:05;;;;;;;7.25;5.18;;;22.60;55.90;;;;;;5095371;28;20062;-69
2021/12/08 13:13:49;;;;;;;5.70;3.33;;;22.70;55.20;;;;;;5095882;28;20048;-69
2021/12/08 13:16:29;;;;;;;11.20;6.38;;;22.70;56.10;;;;;;5094989;28;20326;-69
2021/12/08 13:18:58;;;;;;;8.93;5.65;;;22.50;55.60;;;;;;5095485;28;20051;-69
2021/12/08 13:21:43;;;;;;;6.18;4.30;;;22.60;55.20;;;;;;5094242;28;20048;-69
2021/12/08 13:24:31;;;;;;;8.95;5.15;;;22.40;55.90;;;;;;5095168;28;20040;-69
2021/12/08 13:27:29;;;;;;;7.50;5.30;;;22.40;55.50;;;;;;5095637;28;20025;-69
2021/12/08 13:30:14;;;;;;;8.07;5.38;;;22.40;56.20;;;;;;5098999;28;20047;-69
2021/12/08 13:32:46;;;;;;;14.23;8.23;;;22.40;56.20;;;;;;5099936;28;20100;-69
2021/12/08 13:35:36;;;;;;;1.88;1.40;;;22.40;55.90;;;;;;5099676;28;20036;-69
2021/12/08 13:38:04;;;;;;;9.93;5.43;;;22.40;56.30;;;;;;5099626;28;20051;-69
2021/12/08 13:40:48;;;;;;;8.88;5.57;;;22.30;56.20;;;;;;5099193;28;20045;-69
2021/12/08 13:43:40;;;;;;;9.55;6.28;;;22.40;55.80;;;;;;5099032;28;20143;-69
2021/12/08 13:46:10;;;;;;;7.05;5.65;;;22.30;56.20;;;;;;5099336;28;20049;-69
2021/12/08 13:49:28;;;;;;;8.77;5.10;;;22.30;55.90;;;;;;5099727;28;20041;-68
2021/12/08 13:52:06;;;;;;;10.45;6.10;;;22.30;56.40;;;;;;5087767;28;20064;-69
2021/12/08 13:54:33;;;;;;;8.02;5.07;;;22.30;56.50;;;;;;5110750;28;20063;-69
2021/12/08 13:57:02;;;;;;;9.38;5.82;;;22.30;56.50;;;;;;5119066;28;20047;-69
2021/12/08 13:59:52;;;;;;;7.47;5.18;;;22.30;56.30;;;;;;5119321;28;20040;-67
2021/12/08 14:02:29;;;;;;;8.05;5.63;;;22.40;56.30;;;;;;5119223;28;20044;-68
2021/12/08 14:05:06;;;;;;;9.52;6.07;;;22.30;56.20;;;;;;5119227;28;20052;-68
2021/12/08 14:07:35;;;;;;;8.52;5.40;;;22.30;55.80;;;;;;5119435;28;20040;-69
2021/12/08 14:10:07;;;;;;;10.25;6.45;;;22.20;56.20;;;;;;5099916;28;20036;-68